sensor_id;sensor_type;location;lat;lon;timestamp;pressure;altitude;pressure_sealevel;temperature;humidity
43119;BME280;28729;49.838;8.650;2023-02-28T00:00:19;100829.72;;;-1.55;74.28
43119;BME280;28729;49.838;8.650;2023-02-28T00:04:21;100838.31;;;-1.59;74.57
43119;BME280;28729;49.838;8.650;2023-02-28T00:08:22;100824.38;;;-1.65;74.40
43119;BME280;28729;49.838;8.650;2023-02-28T00:12:24;100827.53;;;-1.69;74.99
43119;BME280;28729;49.838;8.650;2023-02-28T00:16:26;100824.41;;;-1.74;74.94
43119;BME280;28729;49.838;8.650;2023-02-28T00:20:27;100825.69;;;-1.78;76.31
43119;BME280;28729;49.838;8.650;2023-02-28T00:24:29;100827.97;;;-1.84;76.78
43119;BME280;28729;49.838;8.650;2023-02-28T00:28:31;100827.69;;;-1.90;76.92
43119;BME280;28729;49.838;8.650;2023-02-28T00:32:33;100833.22;;;-1.92;77.46
43119;BME280;28729;49.838;8.650;2023-02-28T00:36:35;100827.69;;;-1.90;78.84
43119;BME280;28729;49.838;8.650;2023-02-28T00:40:38;100828.00;;;-1.93;77.98
43119;BME280;28729;49.838;8.650;2023-02-28T00:44:40;100823.00;;;-1.98;78.21
43119;BME280;28729;49.838;8.650;2023-02-28T00:48:41;100830.25;;;-1.98;78.13
43119;BME280;28729;49.838;8.650;2023-02-28T00:52:43;100828.97;;;-2.04;78.61
43119;BME280;28729;49.838;8.650;2023-02-28T00:56:45;100830.28;;;-2.08;78.72
43119;BME280;28729;49.838;8.650;2023-02-28T01:00:51;100826.13;;;-2.12;79.21
43119;BME280;28729;49.838;8.650;2023-02-28T01:04:53;100830.81;;;-2.14;80.32
43119;BME280;28729;49.838;8.650;2023-02-28T01:08:55;100830.97;;;-2.16;80.23
43119;BME280;28729;49.838;8.650;2023-02-28T01:12:57;100823.16;;;-2.19;81.00
43119;BME280;28729;49.838;8.650;2023-02-28T01:16:58;100827.00;;;-2.21;81.40
43119;BME280;28729;49.838;8.650;2023-02-28T01:21:05;100819.75;;;-2.21;81.26
43119;BME280;28729;49.838;8.650;2023-02-28T01:25:07;100820.75;;;-2.22;82.21
43119;BME280;28729;49.838;8.650;2023-02-28T01:29:09;100818.91;;;-2.21;82.54
43119;BME280;28729;49.838;8.650;2023-02-28T01:33:10;100805.09;;;-2.18;82.49
43119;BME280;28729;49.838;8.650;2023-02-28T01:37:13;100812.19;;;-2.17;83.30
43119;BME280;28729;49.838;8.650;2023-02-28T01:41:29;100809.50;;;-2.17;82.81
43119;BME280;28729;49.838;8.650;2023-02-28T01:45:35;100808.94;;;-2.21;82.63
43119;BME280;28729;49.838;8.650;2023-02-28T01:49:37;100805.69;;;-2.24;82.67
43119;BME280;28729;49.838;8.650;2023-02-28T01:53:42;100806.69;;;-2.25;82.37
43119;BME280;28729;49.838;8.650;2023-02-28T01:57:48;100799.72;;;-2.18;83.09
43119;BME280;28729;49.838;8.650;2023-02-28T02:01:53;100799.41;;;-2.15;82.67
43119;BME280;28729;49.838;8.650;2023-02-28T02:05:54;100792.47;;;-2.18;83.31
43119;BME280;28729;49.838;8.650;2023-02-28T02:14:38;100786.38;;;-2.20;84.28
43119;BME280;28729;49.838;8.650;2023-02-28T02:18:52;100787.06;;;-2.18;83.36
43119;BME280;28729;49.838;8.650;2023-02-28T02:36:36;100780.97;;;-2.20;83.85
43119;BME280;28729;49.838;8.650;2023-02-28T02:41:04;100784.09;;;-2.24;84.13
43119;BME280;28729;49.838;8.650;2023-02-28T02:45:17;100784.94;;;-2.24;84.46
43119;BME280;28729;49.838;8.650;2023-02-28T02:49:32;100771.03;;;-2.29;84.71
43119;BME280;28729;49.838;8.650;2023-02-28T02:53:40;100781.25;;;-2.33;85.24
43119;BME280;28729;49.838;8.650;2023-02-28T02:57:53;100784.66;;;-2.31;86.06
43119;BME280;28729;49.838;8.650;2023-02-28T03:02:02;100788.38;;;-2.32;85.55
43119;BME280;28729;49.838;8.650;2023-02-28T03:06:06;100792.03;;;-2.33;85.05
43119;BME280;28729;49.838;8.650;2023-02-28T03:10:34;100795.03;;;-2.36;85.38
43119;BME280;28729;49.838;8.650;2023-02-28T03:14:59;100788.22;;;-2.40;85.90
43119;BME280;28729;49.838;8.650;2023-02-28T03:19:24;100782.81;;;-2.40;85.87
43119;BME280;28729;49.838;8.650;2023-02-28T03:28:03;100783.22;;;-2.44;87.09
43119;BME280;28729;49.838;8.650;2023-02-28T03:36:19;100778.72;;;-2.44;87.93
43119;BME280;28729;49.838;8.650;2023-02-28T03:40:25;100780.13;;;-2.40;89.07
43119;BME280;28729;49.838;8.650;2023-02-28T03:44:35;100787.22;;;-2.39;89.92
43119;BME280;28729;49.838;8.650;2023-02-28T03:49:02;100789.91;;;-2.39;88.64
43119;BME280;28729;49.838;8.650;2023-02-28T03:53:08;100793.19;;;-2.45;90.36
43119;BME280;28729;49.838;8.650;2023-02-28T03:57:35;100783.09;;;-2.43;90.42
43119;BME280;28729;49.838;8.650;2023-02-28T04:01:47;100789.50;;;-2.44;89.71
43119;BME280;28729;49.838;8.650;2023-02-28T04:05:54;100791.47;;;-2.46;91.93
43119;BME280;28729;49.838;8.650;2023-02-28T04:09:57;100796.59;;;-2.43;90.53
43119;BME280;28729;49.838;8.650;2023-02-28T04:13:58;100791.19;;;-2.43;91.55
43119;BME280;28729;49.838;8.650;2023-02-28T04:18:00;100792.88;;;-2.42;92.36
43119;BME280;28729;49.838;8.650;2023-02-28T04:22:01;100790.06;;;-2.40;92.44
43119;BME280;28729;49.838;8.650;2023-02-28T04:26:03;100786.22;;;-2.38;92.07
43119;BME280;28729;49.838;8.650;2023-02-28T04:30:06;100789.91;;;-2.39;93.55
43119;BME280;28729;49.838;8.650;2023-02-28T04:34:07;100786.22;;;-2.38;93.12
43119;BME280;28729;49.838;8.650;2023-02-28T04:38:09;100788.94;;;-2.38;93.16
43119;BME280;28729;49.838;8.650;2023-02-28T04:42:11;100781.13;;;-2.41;92.81
43119;BME280;28729;49.838;8.650;2023-02-28T04:46:13;100786.94;;;-2.45;92.71
43119;BME280;28729;49.838;8.650;2023-02-28T04:50:14;100780.25;;;-2.51;93.72
43119;BME280;28729;49.838;8.650;2023-02-28T04:54:16;100784.94;;;-2.53;93.44
43119;BME280;28729;49.838;8.650;2023-02-28T04:58:19;100781.66;;;-2.57;93.74
43119;BME280;28729;49.838;8.650;2023-02-28T05:02:20;100794.59;;;-2.60;93.72
43119;BME280;28729;49.838;8.650;2023-02-28T05:06:24;100794.03;;;-2.64;94.00
43119;BME280;28729;49.838;8.650;2023-02-28T05:10:26;100800.69;;;-2.68;94.01
43119;BME280;28729;49.838;8.650;2023-02-28T05:14:28;100800.09;;;-2.71;94.02
43119;BME280;28729;49.838;8.650;2023-02-28T05:18:30;100787.75;;;-2.74;94.15
43119;BME280;28729;49.838;8.650;2023-02-28T05:22:31;100797.25;;;-2.80;94.12
43119;BME280;28729;49.838;8.650;2023-02-28T05:26:38;100791.28;;;-2.83;94.54
43119;BME280;28729;49.838;8.650;2023-02-28T05:30:41;100789.44;;;-2.83;95.23
43119;BME280;28729;49.838;8.650;2023-02-28T05:34:43;100791.16;;;-2.82;95.12
43119;BME280;28729;49.838;8.650;2023-02-28T05:38:48;100791.16;;;-2.82;95.38
43119;BME280;28729;49.838;8.650;2023-02-28T05:42:50;100792.00;;;-2.81;97.04
43119;BME280;28729;49.838;8.650;2023-02-28T05:46:53;100807.50;;;-2.73;95.63
43119;BME280;28729;49.838;8.650;2023-02-28T05:50:57;100799.69;;;-2.77;95.34
43119;BME280;28729;49.838;8.650;2023-02-28T05:54:59;100811.47;;;-2.78;95.25
43119;BME280;28729;49.838;8.650;2023-02-28T05:59:01;100811.47;;;-2.78;95.79
43119;BME280;28729;49.838;8.650;2023-02-28T06:03:03;100809.06;;;-2.71;95.20
43119;BME280;28729;49.838;8.650;2023-02-28T06:07:04;100812.63;;;-2.70;94.68
43119;BME280;28729;49.838;8.650;2023-02-28T06:11:06;100816.75;;;-2.66;95.02
43119;BME280;28729;49.838;8.650;2023-02-28T06:15:15;100816.75;;;-2.66;94.96
43119;BME280;28729;49.838;8.650;2023-02-28T06:19:17;100816.88;;;-2.68;94.75
43119;BME280;28729;49.838;8.650;2023-02-28T06:23:19;100824.97;;;-2.68;94.69
43119;BME280;28729;49.838;8.650;2023-02-28T06:27:21;100826.53;;;-2.65;94.54
43119;BME280;28729;49.838;8.650;2023-02-28T06:31:24;100823.56;;;-2.62;94.14
43119;BME280;28729;49.838;8.650;2023-02-28T06:35:28;100828.66;;;-2.59;94.09
43119;BME280;28729;49.838;8.650;2023-02-28T06:39:31;100830.41;;;-2.58;94.44
43119;BME280;28729;49.838;8.650;2023-02-28T06:43:35;100835.22;;;-2.52;94.09
43119;BME280;28729;49.838;8.650;2023-02-28T06:47:39;100844.91;;;-2.49;93.88
43119;BME280;28729;49.838;8.650;2023-02-28T06:51:43;100840.19;;;-2.47;93.94
43119;BME280;28729;49.838;8.650;2023-02-28T06:55:48;100849.84;;;-2.45;94.02
43119;BME280;28729;49.838;8.650;2023-02-28T06:59:50;100846.03;;;-2.42;93.51
43119;BME280;28729;49.838;8.650;2023-02-28T07:03:51;100848.31;;;-2.38;93.57
43119;BME280;28729;49.838;8.650;2023-02-28T07:07:54;100853.16;;;-2.32;93.53
43119;BME280;28729;49.838;8.650;2023-02-28T07:11:57;100852.88;;;-2.28;92.82
43119;BME280;28729;49.838;8.650;2023-02-28T07:16:02;100843.47;;;-2.24;92.65
43119;BME280;28729;49.838;8.650;2023-02-28T07:20:04;100849.88;;;-2.16;92.42
43119;BME280;28729;49.838;8.650;2023-02-28T07:24:06;100850.88;;;-2.07;92.20
43119;BME280;28729;49.838;8.650;2023-02-28T07:28:08;100855.84;;;-1.93;90.80
43119;BME280;28729;49.838;8.650;2023-02-28T07:32:10;100861.50;;;-1.76;89.79
43119;BME280;28729;49.838;8.650;2023-02-28T07:36:14;100861.78;;;-1.60;89.33
43119;BME280;28729;49.838;8.650;2023-02-28T07:40:17;100853.59;;;-1.41;88.34
43119;BME280;28729;49.838;8.650;2023-02-28T07:44:19;100849.53;;;-1.17;86.91
43119;BME280;28729;49.838;8.650;2023-02-28T07:48:22;100853.13;;;-0.89;85.01
43119;BME280;28729;49.838;8.650;2023-02-28T07:52:24;100851.97;;;-0.59;83.77
43119;BME280;28729;49.838;8.650;2023-02-28T07:56:26;100855.69;;;-0.24;82.13
43119;BME280;28729;49.838;8.650;2023-02-28T08:00:29;100858.78;;;0.17;79.88
43119;BME280;28729;49.838;8.650;2023-02-28T08:04:33;100857.72;;;0.54;77.51
43119;BME280;28729;49.838;8.650;2023-02-28T08:08:34;100860.84;;;0.93;74.86
43119;BME280;28729;49.838;8.650;2023-02-28T08:12:36;100857.53;;;1.16;71.61
43119;BME280;28729;49.838;8.650;2023-02-28T08:16:38;100863.78;;;1.50;70.92
43119;BME280;28729;49.838;8.650;2023-02-28T08:20:40;100866.06;;;1.79;68.31
43119;BME280;28729;49.838;8.650;2023-02-28T08:24:42;100872.56;;;2.03;68.56
43119;BME280;28729;49.838;8.650;2023-02-28T08:28:44;100867.47;;;2.33;66.33
43119;BME280;28729;49.838;8.650;2023-02-28T08:32:46;100852.84;;;2.50;65.43
43119;BME280;28729;49.838;8.650;2023-02-28T08:36:48;100848.06;;;2.44;63.02
43119;BME280;28729;49.838;8.650;2023-02-28T08:40:50;100854.38;;;2.44;63.59
43119;BME280;28729;49.838;8.650;2023-02-28T08:44:59;100859.97;;;2.43;63.38
43119;BME280;28729;49.838;8.650;2023-02-28T08:49:01;100857.75;;;2.63;63.52
43119;BME280;28729;49.838;8.650;2023-02-28T08:53:03;100861.81;;;2.59;60.07
43119;BME280;28729;49.838;8.650;2023-02-28T08:57:05;100858.09;;;2.68;61.95
43119;BME280;28729;49.838;8.650;2023-02-28T09:01:13;100862.28;;;2.95;62.79
43119;BME280;28729;49.838;8.650;2023-02-28T09:05:16;100847.16;;;2.92;59.33
43119;BME280;28729;49.838;8.650;2023-02-28T09:09:18;100849.38;;;2.89;59.93
43119;BME280;28729;49.838;8.650;2023-02-28T09:13:20;100838.13;;;2.92;59.79
43119;BME280;28729;49.838;8.650;2023-02-28T09:17:24;100844.91;;;3.04;60.42
43119;BME280;28729;49.838;8.650;2023-02-28T09:21:31;100842.16;;;3.04;57.73
43119;BME280;28729;49.838;8.650;2023-02-28T09:25:33;100840.78;;;3.08;58.15
43119;BME280;28729;49.838;8.650;2023-02-28T09:29:35;100838.38;;;3.22;57.65
43119;BME280;28729;49.838;8.650;2023-02-28T09:33:37;100824.53;;;3.31;56.91
43119;BME280;28729;49.838;8.650;2023-02-28T09:37:44;100824.06;;;3.51;56.90
43119;BME280;28729;49.838;8.650;2023-02-28T09:41:50;100835.72;;;3.68;56.72
43119;BME280;28729;49.838;8.650;2023-02-28T09:50:29;100832.59;;;3.79;54.06
43119;BME280;28729;49.838;8.650;2023-02-28T09:54:34;100829.19;;;3.77;53.03
43119;BME280;28729;49.838;8.650;2023-02-28T09:58:45;100839.00;;;3.86;53.56
43119;BME280;28729;49.838;8.650;2023-02-28T10:03:04;100830.16;;;4.07;51.78
43119;BME280;28729;49.838;8.650;2023-02-28T10:07:20;100834.88;;;4.36;51.76
43119;BME280;28729;49.838;8.650;2023-02-28T10:11:23;100837.44;;;4.15;50.62
43119;BME280;28729;49.838;8.650;2023-02-28T10:15:30;100834.41;;;4.32;51.34
43119;BME280;28729;49.838;8.650;2023-02-28T10:19:35;100830.28;;;4.51;49.83
43119;BME280;28729;49.838;8.650;2023-02-28T10:23:40;100826.75;;;4.66;48.40
43119;BME280;28729;49.838;8.650;2023-02-28T10:27:42;100835.22;;;4.71;48.22
43119;BME280;28729;49.838;8.650;2023-02-28T10:31:44;100836.00;;;5.09;48.04
43119;BME280;28729;49.838;8.650;2023-02-28T10:35:46;100830.00;;;5.35;45.87
43119;BME280;28729;49.838;8.650;2023-02-28T10:39:48;100831.59;;;5.59;46.07
43119;BME280;28729;49.838;8.650;2023-02-28T10:43:49;100829.00;;;5.72;45.09
43119;BME280;28729;49.838;8.650;2023-02-28T10:48:00;100827.19;;;5.80;45.20
43119;BME280;28729;49.838;8.650;2023-02-28T10:52:02;100820.81;;;5.72;44.22
43119;BME280;28729;49.838;8.650;2023-02-28T11:00:18;100826.13;;;5.96;44.51
43119;BME280;28729;49.838;8.650;2023-02-28T11:08:35;100822.38;;;5.82;43.86
43119;BME280;28729;49.838;8.650;2023-02-28T11:12:45;100822.56;;;5.80;42.99
43119;BME280;28729;49.838;8.650;2023-02-28T11:16:55;100828.38;;;5.92;43.09
43119;BME280;28729;49.838;8.650;2023-02-28T11:21:01;100823.97;;;6.12;42.21
43119;BME280;28729;49.838;8.650;2023-02-28T11:25:21;100812.50;;;6.24;42.77
43119;BME280;28729;49.838;8.650;2023-02-28T11:37:52;100805.16;;;6.52;41.84
43119;BME280;28729;49.838;8.650;2023-02-28T11:46:12;100810.47;;;6.89;42.22
43119;BME280;28729;49.838;8.650;2023-02-28T11:54:59;100797.25;;;6.64;40.42
43119;BME280;28729;49.838;8.650;2023-02-28T12:16:25;100801.84;;;8.14;39.17
43119;BME280;28729;49.838;8.650;2023-02-28T12:20:37;100796.03;;;7.63;39.04
43119;BME280;28729;49.838;8.650;2023-02-28T12:29:30;100797.84;;;8.83;37.73
43119;BME280;28729;49.838;8.650;2023-02-28T12:33:36;100803.84;;;9.19;36.88
43119;BME280;28729;49.838;8.650;2023-02-28T12:37:45;100794.09;;;9.74;37.83
43119;BME280;28729;49.838;8.650;2023-02-28T12:42:01;100797.38;;;9.90;36.61
43119;BME280;28729;49.838;8.650;2023-02-28T12:46:12;100791.53;;;10.11;36.00
43119;BME280;28729;49.838;8.650;2023-02-28T12:50:16;100783.47;;;9.85;36.48
43119;BME280;28729;49.838;8.650;2023-02-28T12:54:25;100781.94;;;10.20;35.75
43119;BME280;28729;49.838;8.650;2023-02-28T12:59:19;100778.66;;;10.37;35.64
43119;BME280;28729;49.838;8.650;2023-02-28T13:03:42;100770.44;;;10.30;34.81
43119;BME280;28729;49.838;8.650;2023-02-28T13:12:15;100768.03;;;10.84;35.05
43119;BME280;28729;49.838;8.650;2023-02-28T13:16:18;100784.34;;;11.40;34.73
43119;BME280;28729;49.838;8.650;2023-02-28T13:20:26;100778.09;;;11.33;33.94
43119;BME280;28729;49.838;8.650;2023-02-28T13:24:52;100783.22;;;10.93;33.60
43119;BME280;28729;49.838;8.650;2023-02-28T13:33:33;100765.19;;;9.13;35.89
43119;BME280;28729;49.838;8.650;2023-02-28T13:37:41;100762.97;;;8.71;36.50
43119;BME280;28729;49.838;8.650;2023-02-28T13:41:45;100765.97;;;8.49;36.61
43119;BME280;28729;49.838;8.650;2023-02-28T13:46:10;100767.22;;;8.53;37.16
43119;BME280;28729;49.838;8.650;2023-02-28T13:54:45;100765.28;;;8.20;36.81
43119;BME280;28729;49.838;8.650;2023-02-28T14:04:19;100761.63;;;7.60;38.20
43119;BME280;28729;49.838;8.650;2023-02-28T14:08:28;100763.28;;;7.48;38.64
43119;BME280;28729;49.838;8.650;2023-02-28T14:12:59;100757.13;;;7.33;38.63
43119;BME280;28729;49.838;8.650;2023-02-28T14:17:04;100748.63;;;7.14;38.28
43119;BME280;28729;49.838;8.650;2023-02-28T14:21:12;100757.22;;;7.04;38.74
43119;BME280;28729;49.838;8.650;2023-02-28T14:34:46;100747.28;;;6.97;39.18
43119;BME280;28729;49.838;8.650;2023-02-28T14:38:56;100747.72;;;7.00;39.35
43119;BME280;28729;49.838;8.650;2023-02-28T14:43:03;100752.13;;;7.01;39.62
43119;BME280;28729;49.838;8.650;2023-02-28T14:47:14;100743.06;;;6.94;39.54
43119;BME280;28729;49.838;8.650;2023-02-28T14:51:22;100738.00;;;6.98;39.64
43119;BME280;28729;49.838;8.650;2023-02-28T14:55:35;100742.00;;;7.02;39.33
43119;BME280;28729;49.838;8.650;2023-02-28T14:59:37;100739.38;;;7.28;39.37
43119;BME280;28729;49.838;8.650;2023-02-28T15:03:39;100731.38;;;7.27;39.35
43119;BME280;28729;49.838;8.650;2023-02-28T15:07:43;100733.06;;;7.35;39.00
43119;BME280;28729;49.838;8.650;2023-02-28T15:11:47;100726.41;;;7.57;38.97
43119;BME280;28729;49.838;8.650;2023-02-28T15:15:54;100727.91;;;7.86;38.81
43119;BME280;28729;49.838;8.650;2023-02-28T15:20:05;100723.91;;;8.02;38.56
43119;BME280;28729;49.838;8.650;2023-02-28T15:28:29;100722.84;;;7.83;38.09
43119;BME280;28729;49.838;8.650;2023-02-28T15:32:32;100727.69;;;7.74;38.21
43119;BME280;28729;49.838;8.650;2023-02-28T15:36:34;100727.69;;;7.81;38.27
43119;BME280;28729;49.838;8.650;2023-02-28T15:40:42;100728.53;;;7.82;38.36
43119;BME280;28729;49.838;8.650;2023-02-28T15:44:44;100731.09;;;7.76;38.18
43119;BME280;28729;49.838;8.650;2023-02-28T15:48:53;100726.81;;;7.67;37.90
43119;BME280;28729;49.838;8.650;2023-02-28T15:52:56;100729.97;;;7.58;38.36
43119;BME280;28729;49.838;8.650;2023-02-28T15:57:03;100738.81;;;7.46;38.62
43119;BME280;28729;49.838;8.650;2023-02-28T16:01:17;100735.44;;;7.44;38.91
43119;BME280;28729;49.838;8.650;2023-02-28T16:05:24;100735.63;;;7.43;39.04
43119;BME280;28729;49.838;8.650;2023-02-28T16:09:29;100742.13;;;7.28;39.10
43119;BME280;28729;49.838;8.650;2023-02-28T16:13:36;100736.78;;;7.14;39.29
43119;BME280;28729;49.838;8.650;2023-02-28T16:17:38;100744.28;;;6.92;39.35
43119;BME280;28729;49.838;8.650;2023-02-28T16:21:40;100748.91;;;6.84;39.63
43119;BME280;28729;49.838;8.650;2023-02-28T16:25:43;100742.09;;;6.74;39.74
43119;BME280;28729;49.838;8.650;2023-02-28T16:29:49;100757.59;;;6.60;40.02
43119;BME280;28729;49.838;8.650;2023-02-28T16:33:51;100750.34;;;6.46;40.29
43119;BME280;28729;49.838;8.650;2023-02-28T16:37:53;100750.66;;;6.29;40.59
43119;BME280;28729;49.838;8.650;2023-02-28T16:41:55;100757.44;;;6.12;40.72
43119;BME280;28729;49.838;8.650;2023-02-28T16:45:57;100758.59;;;5.96;41.21
43119;BME280;28729;49.838;8.650;2023-02-28T16:50:11;100756.28;;;5.78;41.90
43119;BME280;28729;49.838;8.650;2023-02-28T16:54:14;100764.19;;;5.52;42.51
43119;BME280;28729;49.838;8.650;2023-02-28T16:58:16;100766.84;;;5.23;42.55
43119;BME280;28729;49.838;8.650;2023-02-28T17:02:19;100769.31;;;5.03;42.97
43119;BME280;28729;49.838;8.650;2023-02-28T17:06:26;100775.34;;;4.84;43.11
43119;BME280;28729;49.838;8.650;2023-02-28T17:10:31;100782.97;;;4.59;43.69
43119;BME280;28729;49.838;8.650;2023-02-28T17:14:34;100779.44;;;4.36;44.38
43119;BME280;28729;49.838;8.650;2023-02-28T17:18:36;100780.31;;;4.13;44.88
43119;BME280;28729;49.838;8.650;2023-02-28T17:22:40;100787.16;;;3.94;45.27
43119;BME280;28729;49.838;8.650;2023-02-28T17:26:42;100795.63;;;3.76;45.45
43119;BME280;28729;49.838;8.650;2023-02-28T17:30:44;100812.97;;;3.60;46.12
43119;BME280;28729;49.838;8.650;2023-02-28T17:34:48;100801.47;;;3.42;46.76
43119;BME280;28729;49.838;8.650;2023-02-28T17:38:50;100809.72;;;3.26;47.15
43119;BME280;28729;49.838;8.650;2023-02-28T17:42:51;100810.84;;;3.08;47.87
43119;BME280;28729;49.838;8.650;2023-02-28T17:46:54;100820.75;;;2.93;48.36
43119;BME280;28729;49.838;8.650;2023-02-28T17:50:56;100829.66;;;2.79;48.86
43119;BME280;28729;49.838;8.650;2023-02-28T17:54:58;100829.34;;;2.65;49.36
43119;BME280;28729;49.838;8.650;2023-02-28T17:58:59;100839.25;;;2.50;49.72
43119;BME280;28729;49.838;8.650;2023-02-28T18:03:02;100845.38;;;2.36;50.35
43119;BME280;28729;49.838;8.650;2023-02-28T18:07:05;100842.31;;;2.22;51.03
43119;BME280;28729;49.838;8.650;2023-02-28T18:11:07;100844.00;;;2.07;51.06
43119;BME280;28729;49.838;8.650;2023-02-28T18:15:19;100850.94;;;1.93;51.86
43119;BME280;28729;49.838;8.650;2023-02-28T18:19:21;100847.06;;;1.79;52.61
43119;BME280;28729;49.838;8.650;2023-02-28T18:23:23;100845.66;;;1.67;53.13
43119;BME280;28729;49.838;8.650;2023-02-28T18:27:26;100841.56;;;1.55;53.87
43119;BME280;28729;49.838;8.650;2023-02-28T18:31:28;100842.72;;;1.44;53.44
43119;BME280;28729;49.838;8.650;2023-02-28T18:35:30;100847.28;;;1.35;54.21
43119;BME280;28729;49.838;8.650;2023-02-28T18:39:38;100843.69;;;1.27;54.76
43119;BME280;28729;49.838;8.650;2023-02-28T18:43:41;100850.94;;;1.18;55.98
43119;BME280;28729;49.838;8.650;2023-02-28T18:47:42;100841.06;;;1.09;57.10
43119;BME280;28729;49.838;8.650;2023-02-28T18:51:48;100846.78;;;0.98;56.98
43119;BME280;28729;49.838;8.650;2023-02-28T18:55:50;100842.31;;;0.88;56.98
43119;BME280;28729;49.838;8.650;2023-02-28T18:59:51;100847.69;;;0.80;57.45
43119;BME280;28729;49.838;8.650;2023-02-28T19:03:53;100848.19;;;0.76;58.27
43119;BME280;28729;49.838;8.650;2023-02-28T19:07:55;100851.03;;;0.74;58.14
43119;BME280;28729;49.838;8.650;2023-02-28T19:11:57;100845.28;;;0.69;58.06
43119;BME280;28729;49.838;8.650;2023-02-28T19:16:01;100842.19;;;0.64;58.41
43119;BME280;28729;49.838;8.650;2023-02-28T19:20:04;100848.78;;;0.61;58.80
43119;BME280;28729;49.838;8.650;2023-02-28T19:24:07;100842.97;;;0.56;59.52
43119;BME280;28729;49.838;8.650;2023-02-28T19:28:08;100847.53;;;0.56;59.83
43119;BME280;28729;49.838;8.650;2023-02-28T19:32:11;100846.88;;;0.54;59.96
43119;BME280;28729;49.838;8.650;2023-02-28T19:36:13;100845.16;;;0.53;60.37
43119;BME280;28729;49.838;8.650;2023-02-28T19:40:16;100841.06;;;0.49;60.47
43119;BME280;28729;49.838;8.650;2023-02-28T19:44:17;100843.25;;;0.45;60.90
43119;BME280;28729;49.838;8.650;2023-02-28T19:48:19;100841.53;;;0.44;61.84
43119;BME280;28729;49.838;8.650;2023-02-28T19:52:26;100840.00;;;0.41;62.26
43119;BME280;28729;49.838;8.650;2023-02-28T19:56:27;100843.91;;;0.39;63.29
43119;BME280;28729;49.838;8.650;2023-02-28T20:00:29;100850.16;;;0.39;63.64
43119;BME280;28729;49.838;8.650;2023-02-28T20:04:33;100853.88;;;0.38;62.85
43119;BME280;28729;49.838;8.650;2023-02-28T20:08:35;100852.16;;;0.37;64.16
43119;BME280;28729;49.838;8.650;2023-02-28T20:12:39;100851.00;;;0.40;64.03
43119;BME280;28729;49.838;8.650;2023-02-28T20:16:43;100849.47;;;0.37;63.97
43119;BME280;28729;49.838;8.650;2023-02-28T20:20:46;100848.22;;;0.32;65.29
43119;BME280;28729;49.838;8.650;2023-02-28T20:24:48;100850.41;;;0.28;64.95
43119;BME280;28729;49.838;8.650;2023-02-28T20:28:50;100845.75;;;0.20;65.31
43119;BME280;28729;49.838;8.650;2023-02-28T20:32:51;100841.81;;;0.15;66.35
43119;BME280;28729;49.838;8.650;2023-02-28T20:36:53;100843.38;;;0.17;66.48
43119;BME280;28729;49.838;8.650;2023-02-28T20:41:00;100844.38;;;0.16;66.87
43119;BME280;28729;49.838;8.650;2023-02-28T20:45:02;100842.84;;;0.14;65.99
43119;BME280;28729;49.838;8.650;2023-02-28T20:49:05;100838.22;;;0.06;66.50
43119;BME280;28729;49.838;8.650;2023-02-28T20:53:07;100847.34;;;0.05;66.49
43119;BME280;28729;49.838;8.650;2023-02-28T20:57:08;100844.78;;;0.04;67.23
43119;BME280;28729;49.838;8.650;2023-02-28T21:01:21;100844.25;;;0.00;68.25
43119;BME280;28729;49.838;8.650;2023-02-28T21:05:26;100848.81;;;-0.01;68.06
43119;BME280;28729;49.838;8.650;2023-02-28T21:09:31;100852.94;;;0.04;68.08
43119;BME280;28729;49.838;8.650;2023-02-28T21:13:33;100843.06;;;0.03;67.77
43119;BME280;28729;49.838;8.650;2023-02-28T21:17:35;100846.97;;;0.00;67.81
43119;BME280;28729;49.838;8.650;2023-02-28T21:21:39;100842.63;;;-0.11;68.28
43119;BME280;28729;49.838;8.650;2023-02-28T21:25:44;100842.84;;;-0.22;68.49
43119;BME280;28729;49.838;8.650;2023-02-28T21:29:46;100852.97;;;-0.24;69.10
43119;BME280;28729;49.838;8.650;2023-02-28T21:33:48;100841.94;;;-0.31;69.41
43119;BME280;28729;49.838;8.650;2023-02-28T21:37:49;100841.06;;;-0.31;69.64
43119;BME280;28729;49.838;8.650;2023-02-28T21:41:52;100850.53;;;-0.35;69.27
43119;BME280;28729;49.838;8.650;2023-02-28T21:45:53;100847.97;;;-0.37;70.35
43119;BME280;28729;49.838;8.650;2023-02-28T21:49:55;100845.97;;;-0.35;69.34
43119;BME280;28729;49.838;8.650;2023-02-28T21:53:58;100843.38;;;-0.36;69.49
43119;BME280;28729;49.838;8.650;2023-02-28T21:57:59;100848.13;;;-0.38;70.54
43119;BME280;28729;49.838;8.650;2023-02-28T22:02:01;100846.72;;;-0.42;70.94
43119;BME280;28729;49.838;8.650;2023-02-28T22:06:14;100840.31;;;-0.41;71.19
43119;BME280;28729;49.838;8.650;2023-02-28T22:10:16;100842.72;;;-0.38;71.27
43119;BME280;28729;49.838;8.650;2023-02-28T22:14:18;100845.72;;;-0.41;70.96
43119;BME280;28729;49.838;8.650;2023-02-28T22:18:19;100833.34;;;-0.44;71.10
43119;BME280;28729;49.838;8.650;2023-02-28T22:22:22;100825.53;;;-0.47;71.86
43119;BME280;28729;49.838;8.650;2023-02-28T22:26:23;100839.91;;;-0.47;72.65
43119;BME280;28729;49.838;8.650;2023-02-28T22:30:25;100846.63;;;-0.51;72.54
43119;BME280;28729;49.838;8.650;2023-02-28T22:34:27;100848.66;;;-0.53;72.12
43119;BME280;28729;49.838;8.650;2023-02-28T22:38:28;100849.81;;;-0.55;72.30
43119;BME280;28729;49.838;8.650;2023-02-28T22:42:33;100840.53;;;-0.53;73.18
43119;BME280;28729;49.838;8.650;2023-02-28T22:46:35;100849.50;;;-0.52;72.97
43119;BME280;28729;49.838;8.650;2023-02-28T22:50:37;100855.34;;;-0.57;73.76
43119;BME280;28729;49.838;8.650;2023-02-28T22:54:38;100851.97;;;-0.59;74.10
43119;BME280;28729;49.838;8.650;2023-02-28T22:58:40;100848.84;;;-0.64;73.95
43119;BME280;28729;49.838;8.650;2023-02-28T23:02:44;100850.31;;;-0.70;74.53
43119;BME280;28729;49.838;8.650;2023-02-28T23:06:46;100853.63;;;-0.76;74.91
43119;BME280;28729;49.838;8.650;2023-02-28T23:10:49;100854.63;;;-0.77;75.31
43119;BME280;28729;49.838;8.650;2023-02-28T23:14:52;100857.34;;;-0.77;75.51
43119;BME280;28729;49.838;8.650;2023-02-28T23:18:53;100850.06;;;-0.76;76.99